Time;durP1;ratioP1;P1;durP2;ratioP2;P2;SDS_P1;SDS_P2;PMS_P1;PMS_P2;Temp;Humidity;BMP_temperature;BMP_pressure;BME280_temperature;BME280_humidity;BME280_pressure;Samples;Min_cycle;Max_cycle;Signal;HPM_P1;HPM_P2
2022/01/25 00:31:13;;;;;;;;;;;-5.40;75.60;;;;;;5019756;28;93050;-42
2022/01/25 00:33:40;;;;;;;;;;;-5.50;75.40;;;;;;5020264;28;91992;-43
2022/01/25 00:36:07;;;;;;;;;;;-5.50;75.20;;;;;;5022558;28;93004;-43
2022/01/25 00:38:32;;;;;;;;;;;-5.50;75.30;;;;;;5019967;28;92169;-42
2022/01/25 00:40:58;;;;;;;;;;;-5.50;75.40;;;;;;5020411;28;92399;-43
2022/01/25 00:43:26;;;;;;;;;;;-5.50;75.40;;;;;;5019639;28;92937;-43
2022/01/25 00:45:54;;;;;;;;;;;-5.50;75.30;;;;;;5019815;28;92216;-43
2022/01/25 00:48:30;;;;;;;;;;;-5.60;75.30;;;;;;5019212;28;94080;-43
2022/01/25 00:51:03;;;;;;;;;;;-5.60;75.40;;;;;;5019648;28;94706;-42
2022/01/25 00:56:13;;;;;;;;;;;-5.60;75.10;;;;;;5023618;28;91993;-42
2022/01/25 00:58:39;;;;;;;;;;;-5.60;75.20;;;;;;5025895;28;94800;-43
2022/01/25 01:01:04;;;;;;;;;;;-5.60;75.10;;;;;;5023640;28;94098;-43
2022/01/25 01:03:30;;;;;;;;;;;-5.60;75.20;;;;;;5022710;28;94966;-43
2022/01/25 01:05:55;;;;;;;;;;;-5.70;75.10;;;;;;5023638;28;91413;-43
2022/01/25 01:08:21;;;;;;;;;;;-5.70;75.20;;;;;;5023340;28;92907;-43
2022/01/25 01:10:46;;;;;;;;;;;-5.70;75.30;;;;;;5022434;28;94243;-43
2022/01/25 01:13:44;;;;;;;;;;;-5.70;75.20;;;;;;5022511;28;92886;-42
2022/01/25 01:45:37;;;;;;;;;;;-5.90;75.10;;;;;;5023918;28;92490;-42
2022/01/25 01:48:06;;;;;;;;;;;-5.90;75.10;;;;;;5022666;28;91768;-43
2022/01/25 01:50:35;;;;;;;;;;;-5.90;74.90;;;;;;5022546;28;93711;-42
2022/01/25 01:53:02;;;;;;;;;;;-5.90;74.90;;;;;;5022107;28;94583;-42
2022/01/25 01:55:28;;;;;;;;;;;-5.90;75.00;;;;;;5022347;28;92144;-42
2022/01/25 01:57:54;;;;;;;;;;;-5.90;75.10;;;;;;5022895;28;93844;-42
2022/01/25 02:00:21;;;;;;;;;;;-6.00;75.00;;;;;;5021899;28;94637;-42
2022/01/25 02:02:47;;;;;;;;;;;-6.00;75.00;;;;;;5021648;28;92179;-42
2022/01/25 02:05:12;;;;;;;;;;;-6.00;75.00;;;;;;5021520;28;93879;-42
2022/01/25 02:07:38;;;;;;;;;;;-6.00;74.90;;;;;;5025026;28;93095;-42
2022/01/25 02:10:05;;;;;;;;;;;-6.00;74.80;;;;;;5022638;28;94046;-42
2022/01/25 02:12:30;;;;;;;;;;;-6.00;74.90;;;;;;5021629;28;93985;-42
2022/01/25 02:14:56;;;;;;;;;;;-6.00;74.80;;;;;;5022199;28;92155;-42
2022/01/25 02:22:59;;;;;;;;;;;-6.10;74.70;;;;;;5021333;28;91137;-42
2022/01/25 02:25:25;;;;;;;;;;;-6.10;74.80;;;;;;5022272;28;93002;-43
2022/01/25 02:27:51;;;;;;;;;;;-6.10;74.80;;;;;;5021861;28;93570;-43
2022/01/25 02:30:16;;;;;;;;;;;-6.10;74.80;;;;;;5024399;28;93127;-43
2022/01/25 02:32:42;;;;;;;;;;;-6.10;74.60;;;;;;5021268;28;94758;-42
2022/01/25 02:35:08;;;;;;;;;;;-6.10;74.70;;;;;;5021925;28;92152;-43
2022/01/25 02:37:34;;;;;;;;;;;-6.10;74.80;;;;;;5021993;28;93987;-43
2022/01/25 02:39:59;;;;;;;;;;;-6.20;74.60;;;;;;5021147;28;94502;-43
2022/01/25 02:42:25;;;;;;;;;;;-6.20;74.80;;;;;;5021492;28;92235;-43
2022/01/25 02:44:51;;;;;;;;;;;-6.20;74.80;;;;;;5021584;28;93149;-42
2022/01/25 02:50:03;;;;;;;;;;;-6.20;74.70;;;;;;5023166;28;92001;-43
2022/01/25 02:52:28;;;;;;;;;;;-6.30;74.70;;;;;;5021146;28;94305;-43
2022/01/25 02:54:54;;;;;;;;;;;-6.30;74.70;;;;;;5020962;28;93111;-43
2022/01/25 02:57:20;;;;;;;;;;;-6.20;74.50;;;;;;5021567;28;94713;-44
2022/01/25 02:59:46;;;;;;;;;;;-6.20;74.60;;;;;;5020979;28;94412;-43
2022/01/25 03:02:12;;;;;;;;;;;-6.30;74.60;;;;;;5021580;28;92135;-43
2022/01/25 03:04:37;;;;;;;;;;;-6.30;74.80;;;;;;5021520;28;93922;-44
2022/01/25 03:07:03;;;;;;;;;;;-6.30;75.20;;;;;;5020955;28;94368;-43
2022/01/25 03:09:29;;;;;;;;;;;-6.30;74.80;;;;;;5021509;28;92149;-43
2022/01/25 03:11:56;;;;;;;;;;;-6.30;74.70;;;;;;5024208;28;93922;-43
2022/01/25 03:14:23;;;;;;;;;;;-6.40;74.50;;;;;;5020825;28;93275;-43
2022/01/25 03:19:47;;;;;;;;;;;-6.30;74.50;;;;;;5018598;28;93790;-43
2022/01/25 03:22:32;;;;;;;;;;;-6.40;74.50;;;;;;5021006;28;92244;-43
2022/01/25 03:24:58;;;;;;;;;;;-6.40;74.50;;;;;;5021295;28;93863;-42
2022/01/25 03:27:23;;;;;;;;;;;-6.50;74.50;;;;;;5020521;28;95164;-43
2022/01/25 03:29:49;;;;;;;;;;;-6.50;74.60;;;;;;5021287;28;92192;-44
2022/01/25 03:32:14;;;;;;;;;;;-6.50;74.60;;;;;;5020873;28;94109;-43
2022/01/25 03:34:40;;;;;;;;;;;-6.50;74.50;;;;;;5023670;28;94738;-43
2022/01/25 03:37:05;;;;;;;;;;;-6.50;74.60;;;;;;5021369;28;93741;-43
2022/01/25 03:39:31;;;;;;;;;;;-6.50;74.60;;;;;;5020299;28;94700;-44
2022/01/25 03:41:56;;;;;;;;;;;-6.50;74.50;;;;;;5020566;28;92247;-43
2022/01/25 03:44:22;;;;;;;;;;;-6.60;74.50;;;;;;5020357;28;92926;-43
2022/01/25 03:51:57;;;;;;;;;;;-6.60;74.60;;;;;;5020687;28;92082;-43
2022/01/25 03:54:23;;;;;;;;;;;-6.60;74.70;;;;;;5020393;28;94588;-42
2022/01/25 03:56:48;;;;;;;;;;;-6.60;74.60;;;;;;5023716;28;91896;-42
2022/01/25 03:59:14;;;;;;;;;;;-6.60;74.50;;;;;;5020432;28;93212;-42
2022/01/25 04:01:39;;;;;;;;;;;-6.60;74.40;;;;;;5021310;28;91453;-42
2022/01/25 04:04:09;;;;;;;;;;;-6.60;74.40;;;;;;5020678;28;92949;-42
2022/01/25 04:06:36;;;;;;;;;;;-6.70;74.30;;;;;;5019996;28;94354;-42
2022/01/25 04:09:04;;;;;;;;;;;-6.70;74.40;;;;;;5019816;28;93063;-42
2022/01/25 04:11:29;;;;;;;;;;;-6.70;74.30;;;;;;5020436;28;94805;-42
2022/01/25 04:13:57;;;;;;;;;;;-6.70;74.30;;;;;;5019688;28;95098;-42
2022/01/25 04:16:28;;;;;;;;;;;-6.70;74.40;;;;;;5020333;28;92131;-42
2022/01/25 04:21:39;;;;;;;;;;;-6.80;74.30;;;;;;5020393;28;92153;-43
2022/01/25 04:26:51;;;;;;;;;;;-6.80;74.50;;;;;;5019013;28;91615;-43
2022/01/25 04:29:16;;;;;;;;;;;-6.80;74.50;;;;;;5020137;28;92157;-43
2022/01/25 04:31:42;;;;;;;;;;;-6.80;74.60;;;;;;5020536;28;91969;-44
2022/01/25 04:50:08;;;;;;;;;;;-6.90;74.50;;;;;;5019479;28;91986;-43
2022/01/25 04:52:43;;;;;;;;;;;-7.00;74.40;;;;;;5020180;28;94399;-43
2022/01/25 04:55:23;;;;;;;;;;;-7.00;74.40;;;;;;5019349;28;94546;-44
2022/01/25 04:57:57;;;;;;;;;;;-7.00;74.40;;;;;;5019945;28;91943;-43
2022/01/25 05:00:24;;;;;;;;;;;-7.00;74.40;;;;;;5019312;28;93774;-43
2022/01/25 05:02:55;;;;;;;;;;;-7.00;74.50;;;;;;5021949;28;94590;-42
2022/01/25 05:10:48;;;;;;;;;;;-7.10;74.50;;;;;;5010025;28;92157;-43
2022/01/25 05:13:37;;;;;;;;;;;-7.10;74.50;;;;;;5019733;28;93669;-43
2022/01/25 05:18:39;;;;;;;;;;;-7.10;74.40;;;;;;5019906;28;91368;-43
2022/01/25 05:23:49;;;;;;;;;;;-7.10;74.40;;;;;;5018897;28;92229;-44
2022/01/25 05:26:14;;;;;;;;;;;-7.10;74.50;;;;;;5021989;28;93184;-43
2022/01/25 05:28:40;;;;;;;;;;;-7.20;74.40;;;;;;5019041;28;93882;-43
2022/01/25 05:31:05;;;;;;;;;;;-7.20;74.40;;;;;;5019181;28;92171;-43
2022/01/25 05:33:31;;;;;;;;;;;-7.20;74.50;;;;;;5019272;28;93995;-43
2022/01/25 05:35:57;;;;;;;;;;;-7.30;74.50;;;;;;5018809;28;94699;-43
2022/01/25 05:38:23;;;;;;;;;;;-7.30;74.40;;;;;;5020045;28;92012;-43
2022/01/25 05:40:57;;;;;;;;;;;-7.30;74.50;;;;;;5022343;28;93856;-43
2022/01/25 05:48:26;;;;;;;;;;;-7.30;74.50;;;;;;5024975;28;92187;-43
2022/01/25 05:50:52;;;;;;;;;;;-7.40;74.50;;;;;;5021787;28;93070;-43
2022/01/25 05:53:18;;;;;;;;;;;-7.30;74.50;;;;;;5022370;28;95203;-43
2022/01/25 05:55:44;;;;;;;;;;;-7.40;75.00;;;;;;5022075;28;94400;-43
2022/01/25 05:58:09;;;;;;;;;;;-7.40;74.40;;;;;;5022589;28;92203;-43
2022/01/25 06:00:35;;;;;;;;;;;-7.40;74.50;;;;;;5022493;28;93325;-43
2022/01/25 06:03:02;;;;;;;;;;;-7.40;74.40;;;;;;5021713;28;94620;-43
2022/01/25 06:05:27;;;;;;;;;;;-7.40;74.40;;;;;;5022364;28;92143;-43
2022/01/25 06:07:53;;;;;;;;;;;-7.40;74.40;;;;;;5022728;28;94190;-43
2022/01/25 06:10:18;;;;;;;;;;;-7.40;74.40;;;;;;5024924;28;94593;-43
2022/01/25 06:12:45;;;;;;;;;;;-7.40;74.40;;;;;;5022060;28;94636;-43
2022/01/25 06:15:11;;;;;;;;;;;-7.40;74.40;;;;;;5021087;28;95687;-43
2022/01/25 06:17:36;;;;;;;;;;;-7.50;74.50;;;;;;5022109;28;92033;-43
2022/01/25 06:20:02;;;;;;;;;;;-7.50;74.60;;;;;;5022256;28;93785;-43
2022/01/25 06:22:28;;;;;;;;;;;-7.50;74.50;;;;;;5021352;28;96395;-43
2022/01/25 06:24:53;;;;;;;;;;;-7.50;74.50;;;;;;5021983;28;92079;-43
2022/01/25 06:27:19;;;;;;;;;;;-7.50;74.50;;;;;;5022156;28;93771;-43
2022/01/25 06:29:45;;;;;;;;;;;-7.50;74.50;;;;;;5021602;28;94234;-43
2022/01/25 06:32:10;;;;;;;;;;;-7.60;74.50;;;;;;5025414;28;91467;-43
2022/01/25 06:34:36;;;;;;;;;;;-7.60;74.50;;;;;;5021379;28;94227;-43
2022/01/25 06:37:02;;;;;;;;;;;-7.60;74.50;;;;;;5021656;28;92168;-43
2022/01/25 06:39:27;;;;;;;;;;;-7.60;74.50;;;;;;5021724;28;92931;-43
2022/01/25 06:41:53;;;;;;;;;;;-7.60;74.60;;;;;;5021074;28;95163;-43
2022/01/25 06:44:18;;;;;;;;;;;-7.60;74.60;;;;;;5021730;28;91881;-43
2022/01/25 06:46:46;;;;;;;;;;;-7.60;74.40;;;;;;5022069;28;92133;-43
2022/01/25 06:49:12;;;;;;;;;;;-7.60;74.50;;;;;;5020655;28;94508;-43
2022/01/25 06:51:38;;;;;;;;;;;-7.60;74.50;;;;;;5020140;28;92158;-43
2022/01/25 06:54:03;;;;;;;;;;;-7.60;74.40;;;;;;5024267;28;93890;-43
2022/01/25 06:56:29;;;;;;;;;;;-7.70;74.40;;;;;;5022094;28;91434;-43
2022/01/25 06:58:54;;;;;;;;;;;-7.70;74.50;;;;;;5021580;28;93401;-43
2022/01/25 07:01:20;;;;;;;;;;;-7.70;74.40;;;;;;5020931;28;94727;-43
2022/01/25 07:03:45;;;;;;;;;;;-7.70;74.50;;;;;;5020734;28;93086;-43
2022/01/25 07:06:11;;;;;;;;;;;-7.70;74.50;;;;;;5021254;28;94581;-43
2022/01/25 07:08:36;;;;;;;;;;;-7.70;74.60;;;;;;5020879;28;93419;-43
2022/01/25 07:11:02;;;;;;;;;;;-7.70;74.50;;;;;;5021475;28;92072;-43
2022/01/25 07:13:27;;;;;;;;;;;-7.70;74.50;;;;;;5023928;28;93842;-43
2022/01/25 07:15:53;;;;;;;;;;;-7.70;74.60;;;;;;5021209;28;92172;-43
2022/01/25 07:18:19;;;;;;;;;;;-7.70;74.60;;;;;;5021150;28;93978;-43
2022/01/25 07:20:44;;;;;;;;;;;-7.80;74.60;;;;;;5021405;28;92338;-43
2022/01/25 07:23:10;;;;;;;;;;;-7.70;74.60;;;;;;5021320;28;92016;-43
2022/01/25 07:25:35;;;;;;;;;;;-7.80;74.70;;;;;;5021116;28;94322;-43
2022/01/25 07:28:01;;;;;;;;;;;-7.80;74.70;;;;;;5019925;28;95656;-43
2022/01/25 07:30:26;;;;;;;;;;;-7.80;74.70;;;;;;5020948;28;92220;-46
2022/01/25 07:32:52;;;;;;;;;;;-7.60;72.90;;;;;;5020919;28;93927;-46
2022/01/25 07:35:18;;;;;;;;;;;-7.50;72.20;;;;;;5023594;28;94592;-47
2022/01/25 07:37:43;;;;;;;;;;;-7.60;72.70;;;;;;5020932;28;92851;-47
2022/01/25 07:40:10;;;;;;;;;;;-7.70;73.40;;;;;;5020332;28;95626;-47
2022/01/25 07:42:38;;;;;;;;;;;-7.70;73.80;;;;;;5020532;28;92126;-45
2022/01/25 07:45:08;;;;;;;;;;;-7.80;74.10;;;;;;5021226;28;94216;-45
2022/01/25 07:47:35;;;;;;;;;;;-7.80;74.20;;;;;;5020241;28;94731;-46
2022/01/25 07:50:00;;;;;;;;;;;-7.80;74.40;;;;;;5020557;28;92202;-45
2022/01/25 07:52:26;;;;;;;;;;;-7.80;74.50;;;;;;5020019;28;94226;-45
2022/01/25 07:54:51;;;;;;;;;;;-7.80;74.60;;;;;;5020044;28;93490;-45
2022/01/25 07:57:17;;;;;;;;;;;-7.90;74.60;;;;;;5023910;28;92237;-45
2022/01/25 07:59:43;;;;;;;;;;;-7.90;74.70;;;;;;5020438;28;92939;-45
2022/01/25 08:02:14;;;;;;;;;;;-7.90;74.80;;;;;;5019931;28;92210;-45
2022/01/25 08:04:40;;;;;;;;;;;-7.90;74.80;;;;;;5020522;28;93740;-46
2022/01/25 08:07:05;;;;;;;;;;;-7.90;75.00;;;;;;5020095;28;94785;-46
2022/01/25 08:09:31;;;;;;;;;;;-7.90;74.90;;;;;;5020940;28;91399;-45
2022/01/25 08:11:56;;;;;;;;;;;-7.90;75.00;;;;;;5020548;28;93139;-45
2022/01/25 08:14:22;;;;;;;;;;;-7.90;75.10;;;;;;5019770;28;94772;-46
2022/01/25 08:16:49;;;;;;;;;;;-7.90;75.10;;;;;;5019803;28;92959;-47
2022/01/25 08:19:15;;;;;;;;;;;-7.90;75.20;;;;;;5022948;28;94177;-46
2022/01/25 08:21:41;;;;;;;;;;;-7.90;75.20;;;;;;5020275;28;92141;-47
2022/01/25 08:24:07;;;;;;;;;;;-7.90;75.30;;;;;;5020552;28;94000;-45
2022/01/25 08:26:32;;;;;;;;;;;-7.90;75.30;;;;;;5019774;28;95196;-45
2022/01/25 08:28:58;;;;;;;;;;;-7.90;75.20;;;;;;5020074;28;93278;-45
2022/01/25 08:31:24;;;;;;;;;;;-7.90;75.40;;;;;;5020273;28;93719;-45
2022/01/25 08:33:49;;;;;;;;;;;-7.90;75.40;;;;;;5020103;28;93613;-47
2022/01/25 08:36:15;;;;;;;;;;;-8.00;75.40;;;;;;5019986;28;92162;-45
2022/01/25 08:38:41;;;;;;;;;;;-8.00;75.50;;;;;;5019983;28;93744;-45
2022/01/25 08:41:06;;;;;;;;;;;-7.90;76.20;;;;;;5021280;28;95572;-45
2022/01/25 08:43:33;;;;;;;;;;;-8.00;75.50;;;;;;5019946;28;94897;-46
2022/01/25 08:45:58;;;;;;;;;;;-8.00;75.50;;;;;;5019382;28;94417;-45
2022/01/25 08:48:24;;;;;;;;;;;-8.00;75.70;;;;;;5020091;28;91951;-46
2022/01/25 08:50:49;;;;;;;;;;;-8.00;75.80;;;;;;5019638;28;94398;-47
2022/01/25 08:53:15;;;;;;;;;;;-8.00;75.80;;;;;;5019281;28;94822;-45
2022/01/25 08:55:40;;;;;;;;;;;-8.00;75.70;;;;;;5019870;28;92232;-45
2022/01/25 08:58:06;;;;;;;;;;;-8.00;75.90;;;;;;5020182;28;94158;-46
2022/01/25 09:00:32;;;;;;;;;;;-8.00;75.80;;;;;;5019230;28;94763;-46
2022/01/25 09:02:59;;;;;;;;;;;-8.00;75.90;;;;;;5023095;28;91938;-45
2022/01/25 09:05:26;;;;;;;;;;;-8.00;75.90;;;;;;5018320;28;95095;-46
2022/01/25 09:07:52;;;;;;;;;;;-8.00;76.00;;;;;;5019619;28;92123;-47
2022/01/25 09:10:18;;;;;;;;;;;-8.00;76.60;;;;;;5019879;28;94180;-45
2022/01/25 09:12:43;;;;;;;;;;;-8.00;76.10;;;;;;5020503;28;94505;-46
2022/01/25 09:15:09;;;;;;;;;;;-8.00;76.10;;;;;;5023268;28;92271;-47
2022/01/25 09:17:34;;;;;;;;;;;-8.00;76.10;;;;;;5023167;28;93679;-48
2022/01/25 09:20:02;;;;;;;;;;;-8.00;76.20;;;;;;5022387;28;94461;-47
2022/01/25 09:22:27;;;;;;;;;;;-8.00;76.20;;;;;;5026511;28;91343;-45
2022/01/25 09:24:53;;;;;;;;;;;-8.00;76.30;;;;;;5022603;28;94284;-47
2022/01/25 09:27:19;;;;;;;;;;;-8.00;76.40;;;;;;5022944;28;92230;-45
2022/01/25 09:29:44;;;;;;;;;;;-8.00;76.30;;;;;;5022332;28;94276;-47
2022/01/25 09:32:10;;;;;;;;;;;-8.00;76.40;;;;;;5022398;28;94371;-46
2022/01/25 09:34:35;;;;;;;;;;;-8.00;76.60;;;;;;5022680;28;92187;-47
2022/01/25 09:37:02;;;;;;;;;;;-8.00;76.50;;;;;;5022875;28;94098;-46
2022/01/25 09:39:27;;;;;;;;;;;-8.00;76.60;;;;;;5022361;28;94739;-46
2022/01/25 09:41:53;;;;;;;;;;;-8.00;76.30;;;;;;5022420;28;92238;-46
2022/01/25 09:44:18;;;;;;;;;;;-8.00;76.40;;;;;;5025295;28;93684;-45
2022/01/25 09:46:44;;;;;;;;;;;-8.00;76.40;;;;;;5023329;28;91385;-45
2022/01/25 09:49:11;;;;;;;;;;;-8.00;76.50;;;;;;5023387;28;91898;-46
2022/01/25 09:51:41;;;;;;;;;;;-8.00;76.50;;;;;;5021923;28;94502;-46
2022/01/25 09:54:06;;;;;;;;;;;-8.00;76.60;;;;;;5021721;28;93115;-45
2022/01/25 09:56:33;;;;;;;;;;;-8.00;76.60;;;;;;5022550;28;94618;-46
2022/01/25 09:58:59;;;;;;;;;;;-7.90;76.60;;;;;;5022084;28;94943;-45
2022/01/25 10:01:26;;;;;;;;;;;-7.90;76.80;;;;;;5022340;28;91997;-45
2022/01/25 10:03:51;;;;;;;;;;;-7.90;77.00;;;;;;5022191;28;94301;-46
2022/01/25 10:06:20;;;;;;;;;;;-7.90;77.10;;;;;;5024918;28;94652;-45
2022/01/25 10:08:49;;;;;;;;;;;-7.90;77.10;;;;;;5022798;28;92013;-47
2022/01/25 10:11:15;;;;;;;;;;;-7.90;77.00;;;;;;5022448;28;93619;-45
2022/01/25 10:13:46;;;;;;;;;;;-7.90;77.10;;;;;;5022199;28;92178;-47
2022/01/25 10:16:19;;;;;;;;;;;-7.90;77.20;;;;;;5022218;28;94308;-47
2022/01/25 10:18:45;;;;;;;;;;;-7.90;77.20;;;;;;5020904;28;95766;-45
2022/01/25 10:21:13;;;;;;;;;;;-7.90;77.20;;;;;;5022201;28;92173;-46
2022/01/25 10:23:40;;;;;;;;;;;-7.90;77.10;;;;;;5021562;28;94308;-47
2022/01/25 10:26:06;;;;;;;;;;;-7.90;77.10;;;;;;5021479;28;94414;-46
2022/01/25 10:28:32;;;;;;;;;;;-7.90;77.30;;;;;;5025016;28;92147;-45
2022/01/25 10:30:59;;;;;;;;;;;-7.90;77.30;;;;;;5021424;28;94421;-46
2022/01/25 10:33:38;;;;;;;;;;;-7.90;77.30;;;;;;5021909;28;92124;-46
2022/01/25 10:36:11;;;;;;;;;;;-7.90;77.40;;;;;;5022417;28;93691;-46
2022/01/25 10:38:37;;;;;;;;;;;-7.90;77.40;;;;;;5020168;28;95975;-45
2022/01/25 10:41:05;;;;;;;;;;;-7.90;77.50;;;;;;5021528;28;92193;-46
2022/01/25 10:43:31;;;;;;;;;;;-7.80;77.60;;;;;;5021187;28;93893;-46
2022/01/25 10:46:10;;;;;;;;;;;-7.80;77.60;;;;;;5021169;28;94572;-45
2022/01/25 10:48:37;;;;;;;;;;;-7.90;77.50;;;;;;5021819;28;92174;-47
2022/01/25 10:51:10;;;;;;;;;;;-7.80;77.60;;;;;;5024409;28;93996;-45
2022/01/25 10:53:37;;;;;;;;;;;-7.80;77.70;;;;;;5021519;28;92132;-46
2022/01/25 10:56:03;;;;;;;;;;;-7.80;77.70;;;;;;5021610;28;95917;-46
2022/01/25 10:58:29;;;;;;;;;;;-7.80;77.60;;;;;;5021244;28;94018;-45
2022/01/25 11:01:13;;;;;;;;;;;-7.80;77.70;;;;;;5021942;28;91332;-47
2022/01/25 11:03:40;;;;;;;;;;;-7.80;77.80;;;;;;5021548;28;93241;-45
2022/01/25 11:06:19;;;;;;;;;;;-7.80;77.80;;;;;;5021088;28;94976;-45
2022/01/25 11:08:46;;;;;;;;;;;-7.80;77.90;;;;;;5020735;28;93163;-46
2022/01/25 11:11:21;;;;;;;;;;;-7.80;77.90;;;;;;5023749;28;94682;-46
2022/01/25 11:13:49;;;;;;;;;;;-7.80;77.90;;;;;;5021675;28;91936;-48
2022/01/25 11:16:14;;;;;;;;;;;-7.70;78.00;;;;;;5021306;28;93990;-47
2022/01/25 11:18:40;;;;;;;;;;;-7.70;78.00;;;;;;5020708;28;94684;-46
2022/01/25 11:21:07;;;;;;;;;;;-7.70;78.10;;;;;;5021239;28;92511;-45
2022/01/25 11:23:34;;;;;;;;;;;-7.70;78.10;;;;;;5021241;28;93634;-47
2022/01/25 11:26:01;;;;;;;;;;;-7.70;78.10;;;;;;5021184;28;93942;-47
2022/01/25 11:28:27;;;;;;;;;;;-7.70;78.20;;;;;;5021186;28;92135;-45
2022/01/25 11:30:53;;;;;;;;;;;-7.60;78.20;;;;;;5019969;28;95740;-47
2022/01/25 11:33:20;;;;;;;;;;;-7.70;78.20;;;;;;5022765;28;95555;-46
2022/01/25 11:35:46;;;;;;;;;;;-7.70;78.30;;;;;;5019711;28;93729;-45
2022/01/25 11:38:12;;;;;;;;;;;-7.60;78.90;;;;;;5020529;28;93060;-45
2022/01/25 11:40:40;;;;;;;;;;;-7.60;78.40;;;;;;5020456;28;92189;-47
2022/01/25 11:43:13;;;;;;;;;;;-7.60;78.40;;;;;;5020999;28;94168;-46
2022/01/25 11:45:40;;;;;;;;;;;-7.60;78.40;;;;;;5020371;28;94554;-45
2022/01/25 11:48:05;;;;;;;;;;;-7.60;78.30;;;;;;5020737;28;92159;-46
2022/01/25 11:50:34;;;;;;;;;;;-7.60;78.30;;;;;;5021026;28;93834;-45
2022/01/25 11:53:06;;;;;;;;;;;-7.60;78.30;;;;;;5020188;28;94293;-45
2022/01/25 11:55:33;;;;;;;;;;;-7.50;78.50;;;;;;5023982;28;92015;-46
2022/01/25 11:58:05;;;;;;;;;;;-7.50;78.30;;;;;;5019473;28;95865;-45
2022/01/25 12:00:36;;;;;;;;;;;-7.50;78.50;;;;;;5020709;28;92147;-47
2022/01/25 12:03:04;;;;;;;;;;;-7.50;78.40;;;;;;5020548;28;93904;-46
2022/01/25 12:05:32;;;;;;;;;;;-7.50;78.40;;;;;;5019924;28;94372;-46
2022/01/25 12:08:08;;;;;;;;;;;-7.50;78.50;;;;;;5020391;28;92062;-46
2022/01/25 12:10:45;;;;;;;;;;;-7.50;78.50;;;;;;5020836;28;91945;-45
2022/01/25 12:13:13;;;;;;;;;;;-7.40;78.30;;;;;;5020000;28;93828;-45
2022/01/25 12:15:38;;;;;;;;;;;-7.40;78.50;;;;;;5020620;28;91427;-45
2022/01/25 12:18:04;;;;;;;;;;;-7.40;78.50;;;;;;5022899;28;93061;-48
2022/01/25 12:20:30;;;;;;;;;;;-7.40;78.50;;;;;;5020445;28;92199;-45
2022/01/25 12:23:05;;;;;;;;;;;-7.40;78.40;;;;;;5019582;28;93682;-44
2022/01/25 12:25:49;;;;;;;;;;;-7.40;78.40;;;;;;5019803;28;94499;-45
2022/01/25 12:28:22;;;;;;;;;;;-7.30;78.30;;;;;;5020025;28;92026;-46
2022/01/25 12:30:48;;;;;;;;;;;-7.30;78.40;;;;;;5020082;28;93587;-45
2022/01/25 12:33:21;;;;;;;;;;;-7.30;78.40;;;;;;5019536;28;94680;-45
2022/01/25 12:35:48;;;;;;;;;;;-7.30;78.40;;;;;;5020272;28;92264;-45
2022/01/25 12:38:16;;;;;;;;;;;-7.30;78.40;;;;;;5020170;28;93689;-47
2022/01/25 12:41:08;;;;;;;;;;;-7.30;78.50;;;;;;5022493;28;93818;-45
2022/01/25 12:43:40;;;;;;;;;;;-7.30;78.70;;;;;;5020591;27;93468;-46
2022/01/25 12:46:06;;;;;;;;;;;-7.30;78.40;;;;;;5019434;28;94317;-45
2022/01/25 12:48:34;;;;;;;;;;;-7.20;78.30;;;;;;5018784;28;93135;-45
2022/01/25 12:51:04;;;;;;;;;;;-7.20;78.50;;;;;;5019895;28;94528;-45
2022/01/25 12:53:31;;;;;;;;;;;-7.20;78.40;;;;;;5019523;28;94566;-45
2022/01/25 12:56:00;;;;;;;;;;;-7.20;78.40;;;;;;5020135;28;92161;-46
2022/01/25 12:58:27;;;;;;;;;;;-7.20;78.50;;;;;;5019769;28;93744;-46
2022/01/25 13:00:53;;;;;;;;;;;-7.20;78.50;;;;;;5019126;28;94399;-47
2022/01/25 13:03:20;;;;;;;;;;;-7.10;78.30;;;;;;5022962;28;92127;-46
2022/01/25 13:05:54;;;;;;;;;;;-7.10;78.40;;;;;;5019622;28;93969;-46
2022/01/25 13:08:22;;;;;;;;;;;-7.10;78.40;;;;;;5020133;28;91986;-45
2022/01/25 13:10:50;;;;;;;;;;;-7.10;78.40;;;;;;5020193;28;91961;-46
2022/01/25 13:13:23;;;;;;;;;;;-7.10;78.40;;;;;;5018310;28;95544;-46
2022/01/25 13:15:56;;;;;;;;;;;-7.00;78.20;;;;;;5019711;28;91964;-48
2022/01/25 13:18:24;;;;;;;;;;;-7.00;78.00;;;;;;5019538;28;92739;-46
2022/01/25 13:20:58;;;;;;;;;;;-7.00;78.30;;;;;;5017920;28;96805;-46
2022/01/25 13:23:24;;;;;;;;;;;-7.00;78.30;;;;;;5022504;28;92100;-46
2022/01/25 13:25:55;;;;;;;;;;;-7.00;78.30;;;;;;5018898;28;94325;-46
2022/01/25 13:30:59;;;;;;;;;;;-7.00;78.40;;;;;;5019934;28;92321;-46
2022/01/25 13:33:28;;;;;;;;;;;-6.90;78.20;;;;;;5018726;28;94637;-47
2022/01/25 13:35:56;;;;;;;;;;;-6.90;78.20;;;;;;5019396;28;92174;-45
2022/01/25 13:38:26;;;;;;;;;;;-6.90;78.40;;;;;;5018573;28;93896;-48
2022/01/25 13:45:56;;;;;;;;;;;-6.70;77.80;;;;;;5022008;28;92263;-45
2022/01/25 13:48:24;;;;;;;;;;;-6.70;77.50;;;;;;5019343;28;92036;-45
2022/01/25 13:50:56;;;;;;;;;;;-6.70;77.70;;;;;;5019133;28;93640;-46
2022/01/25 13:53:23;;;;;;;;;;;-6.70;77.60;;;;;;5018519;28;94487;-45
2022/01/25 13:55:52;;;;;;;;;;;-6.70;77.80;;;;;;5019552;28;91401;-46
2022/01/25 13:58:22;;;;;;;;;;;-6.70;77.80;;;;;;5018856;28;93265;-45
2022/01/25 14:00:48;;;;;;;;;;;-6.60;77.60;;;;;;5021328;28;94230;-45
2022/01/25 14:03:15;;;;;;;;;;;-6.60;77.60;;;;;;5021762;28;93111;-47
2022/01/25 14:05:41;;;;;;;;;;;-6.60;77.50;;;;;;5022299;28;94671;-45
2022/01/25 14:08:06;;;;;;;;;;;-6.60;77.40;;;;;;5024967;28;94437;-45
2022/01/25 14:10:32;;;;;;;;;;;-6.60;77.60;;;;;;5022423;28;94045;-44
2022/01/25 14:23:56;;;;;;;;;;;-6.50;77.40;;;;;;5020389;28;91922;-45
2022/01/25 14:26:27;;;;;;;;;;;-6.40;77.40;;;;;;5022174;28;93706;-45
2022/01/25 14:28:57;;;;;;;;;;;-6.40;77.20;;;;;;5021002;28;95502;-45
2022/01/25 14:31:24;;;;;;;;;;;-6.40;77.20;;;;;;5025047;28;92139;-44
2022/01/25 14:33:52;;;;;;;;;;;-6.40;77.40;;;;;;5021412;28;94579;-45
2022/01/25 14:36:19;;;;;;;;;;;-6.40;77.20;;;;;;5022108;28;92229;-46
2022/01/25 14:38:45;;;;;;;;;;;-6.30;77.20;;;;;;5021978;28;94033;-44
2022/01/25 14:41:12;;;;;;;;;;;-6.30;77.20;;;;;;5020648;28;94703;-44
2022/01/25 14:43:39;;;;;;;;;;;-6.30;77.30;;;;;;5022107;28;92159;-43
2022/01/25 14:46:06;;;;;;;;;;;-6.30;77.30;;;;;;5022112;28;93951;-43
2022/01/25 14:48:36;;;;;;;;;;;-6.30;77.30;;;;;;5021423;28;94477;-43
2022/01/25 14:51:03;;;;;;;;;;;-6.30;77.00;;;;;;5021947;28;92126;-43
2022/01/25 14:53:29;;;;;;;;;;;-6.20;77.10;;;;;;5023654;28;94256;-43
2022/01/25 14:55:56;;;;;;;;;;;-6.20;77.10;;;;;;5021765;28;92191;-44
2022/01/25 14:59:22;;;;;;;;;;;-6.20;77.00;;;;;;5021647;28;94133;-44
2022/01/25 15:01:09;;;;;;;;;;;-6.20;77.00;;;;;;5020425;28;93425;-44
2022/01/25 15:03:34;;;;;;;;;;;-6.20;77.20;;;;;;5021640;28;92135;-44
2022/01/25 15:06:00;;;;;;;;;;;-6.20;77.30;;;;;;5021523;28;93778;-43
2022/01/25 15:08:27;;;;;;;;;;;-6.30;77.40;;;;;;5020861;28;94623;-43
2022/01/25 15:10:52;;;;;;;;;;;-6.20;77.30;;;;;;5021620;28;91423;-43
2022/01/25 15:13:26;;;;;;;;;;;-6.20;77.40;;;;;;5021257;28;93338;-43
2022/01/25 15:15:55;;;;;;;;;;;-6.20;77.20;;;;;;5024014;28;94507;-43
2022/01/25 15:18:41;;;;;;;;;;;-6.30;77.40;;;;;;5020572;28;94054;-43
2022/01/25 15:21:08;;;;;;;;;;;-6.20;77.50;;;;;;5020504;28;94565;-43
2022/01/25 15:23:35;;;;;;;;;;;-6.20;77.40;;;;;;5021180;28;92130;-43
2022/01/25 15:26:05;;;;;;;;;;;-6.20;77.40;;;;;;5020988;28;94096;-43
2022/01/25 15:28:46;;;;;;;;;;;-6.20;77.40;;;;;;5020695;28;94455;-43
2022/01/25 15:31:15;;;;;;;;;;;-6.20;77.20;;;;;;5020086;28;92198;-43
2022/01/25 15:33:41;;;;;;;;;;;-6.20;77.20;;;;;;5020929;28;93344;-43
2022/01/25 15:36:09;;;;;;;;;;;-6.20;77.30;;;;;;5023943;28;92834;-43
2022/01/25 15:38:35;;;;;;;;;;;-6.10;77.80;;;;;;5020636;28;93150;-43
2022/01/25 15:41:07;;;;;;;;;;;-6.10;77.00;;;;;;5019830;28;94384;-43
2022/01/25 15:43:37;;;;;;;;;;;-6.10;77.00;;;;;;5020376;28;93089;-43
2022/01/25 15:46:04;;;;;;;;;;;-6.10;77.00;;;;;;5021229;28;93340;-44
2022/01/25 15:48:30;;;;;;;;;;;-6.20;77.10;;;;;;5020212;28;94529;-43
2022/01/25 15:50:56;;;;;;;;;;;-6.20;77.60;;;;;;5020573;28;92157;-45
2022/01/25 15:53:22;;;;;;;;;;;-6.30;77.80;;;;;;5020605;28;93851;-43
2022/01/25 15:55:49;;;;;;;;;;;-6.30;78.00;;;;;;5020050;28;94566;-43
2022/01/25 15:58:14;;;;;;;;;;;-6.30;78.10;;;;;;5023876;28;92173;-43
2022/01/25 16:00:46;;;;;;;;;;;-6.30;78.00;;;;;;5020634;28;93277;-46
2022/01/25 16:03:13;;;;;;;;;;;-6.30;78.00;;;;;;5020617;28;92054;-44
2022/01/25 16:05:39;;;;;;;;;;;-6.30;78.00;;;;;;5020446;28;93633;-45
2022/01/25 16:08:04;;;;;;;;;;;-6.40;78.20;;;;;;5019372;28;95541;-45
2022/01/25 16:10:32;;;;;;;;;;;-6.40;78.30;;;;;;5020314;28;92356;-45
2022/01/25 16:12:57;;;;;;;;;;;-6.40;78.40;;;;;;5020351;28;93991;-45
2022/01/25 16:15:23;;;;;;;;;;;-6.40;78.40;;;;;;5019843;28;94635;-44
2022/01/25 16:17:48;;;;;;;;;;;-6.40;78.30;;;;;;5020281;28;92179;-46
2022/01/25 16:20:14;;;;;;;;;;;-6.40;78.30;;;;;;5022591;28;94494;-43
2022/01/25 16:22:39;;;;;;;;;;;-6.40;78.30;;;;;;5019693;28;92099;-43
2022/01/25 16:25:05;;;;;;;;;;;-6.40;78.40;;;;;;5020825;28;93955;-43
2022/01/25 16:27:31;;;;;;;;;;;-6.30;78.40;;;;;;5019770;28;94511;-43
2022/01/25 16:29:56;;;;;;;;;;;-6.30;78.20;;;;;;5020384;28;92149;-43
2022/01/25 16:32:24;;;;;;;;;;;-6.30;78.20;;;;;;5019671;28;93998;-43